Time;durP1;ratioP1;P1;durP2;ratioP2;P2;SDS_P1;SDS_P2;PMS_P1;PMS_P2;Temp;Humidity;BMP_temperature;BMP_pressure;BME280_temperature;BME280_humidity;BME280_pressure;Samples;Min_cycle;Max_cycle;Signal;HPM_P1;HPM_P2
2021/03/01 00:04:01;;;;;;;;;;;3.90;99.90;;;;;;12986521;22;20381;-87
2021/03/01 00:09:03;;;;;;;;;;;3.90;99.90;;;;;;12958879;22;20212;-86
2021/03/01 00:14:04;;;;;;;;;;;3.90;99.90;;;;;;12959854;22;19919;-86
2021/03/01 00:19:05;;;;;;;;;;;3.80;99.90;;;;;;12933369;22;20240;-86
2021/03/01 00:24:06;;;;;;;;;;;3.90;99.90;;;;;;12986643;22;19946;-86
2021/03/01 00:29:13;;;;;;;;;;;2.50;99.90;;;;;;12960511;22;19920;-87
2021/03/01 00:34:32;;;;;;;;;;;4.20;99.90;;;;;;12942345;22;19923;-86
2021/03/01 00:39:33;;;;;;;;;;;3.90;99.90;;;;;;12958878;22;19924;-86
2021/03/01 00:44:37;;;;;;;;;;;3.80;99.90;;;;;;12960232;22;19981;-87
2021/03/01 00:49:39;;;;;;;;;;;3.90;99.90;;;;;;12986300;22;20383;-87
2021/03/01 00:54:40;;;;;;;;;;;4.30;99.90;;;;;;12959315;22;19923;-86
2021/03/01 00:59:42;;;;;;;;;;;3.80;99.90;;;;;;12958827;22;20320;-87
2021/03/01 01:04:43;;;;;;;;;;;3.80;99.90;;;;;;12936067;22;19919;-87
2021/03/01 01:09:44;;;;;;;;;;;3.80;99.90;;;;;;12963797;22;19919;-87
2021/03/01 01:14:46;;;;;;;;;;;5.90;99.90;;;;;;12937528;22;20383;-87
2021/03/01 01:19:47;;;;;;;;;;;5.90;99.90;;;;;;12962844;22;19923;-87
2021/03/01 01:24:48;;;;;;;;;;;4.00;99.90;;;;;;12937532;22;20321;-87
2021/03/01 01:29:49;;;;;;;;;;;6.10;99.90;;;;;;12937717;22;20351;-86
2021/03/01 01:34:51;;;;;;;;;;;3.90;99.90;;;;;;12938349;22;19992;-87
2021/03/01 01:39:55;;;;;;;;;;;4.60;99.90;;;;;;12963567;22;19923;-87
2021/03/01 01:44:57;;;;;;;;;;;5.30;99.90;;;;;;12937425;22;19998;-86
2021/03/01 01:50:01;;;;;;;;;;;3.90;99.90;;;;;;12963018;22;19919;-87
2021/03/01 01:55:03;;;;;;;;;;;3.90;99.90;;;;;;12961299;22;19994;-86
2021/03/01 02:00:07;;;;;;;;;;;3.90;99.90;;;;;;12961296;22;20002;-87
2021/03/01 02:05:09;;;;;;;;;;;3.80;99.90;;;;;;12988528;22;20333;-87
2021/03/01 02:10:29;;;;;;;;;;;3.90;99.90;;;;;;12961218;22;19970;-86
2021/03/01 02:15:33;;;;;;;;;;;3.90;99.90;;;;;;12961489;22;19953;-87
2021/03/01 02:20:45;;;;;;;;;;;4.00;99.90;;;;;;12960661;22;20325;-87
2021/03/01 02:25:59;;;;;;;;;;;3.90;99.90;;;;;;12937166;22;19920;-87
2021/03/01 02:31:01;;;;;;;;;;;4.00;99.90;;;;;;12960801;22;20005;-87
2021/03/01 02:36:09;;;;;;;;;;;3.70;99.90;;;;;;12962004;22;19958;-87
2021/03/01 02:41:14;;;;;;;;;;;4.00;99.90;;;;;;12961130;22;19919;-86
2021/03/01 02:46:16;;;;;;;;;;;4.30;99.90;;;;;;12960681;22;19983;-86
2021/03/01 02:51:18;;;;;;;;;;;3.80;99.90;;;;;;12987780;22;19919;-86
2021/03/01 02:56:22;;;;;;;;;;;4.90;99.90;;;;;;12934757;22;19946;-86
2021/03/01 03:01:24;;;;;;;;;;;4.00;99.90;;;;;;12935091;22;19919;-86
2021/03/01 03:06:27;;;;;;;;;;;4.10;99.90;;;;;;12934668;22;19919;-86
2021/03/01 03:11:29;;;;;;;;;;;4.00;99.90;;;;;;12959369;22;20363;-86
2021/03/01 03:16:31;;;;;;;;;;;3.80;99.90;;;;;;12989751;22;19919;-87
2021/03/01 03:21:33;;;;;;;;;;;5.80;99.90;;;;;;12961432;22;19919;-87
2021/03/01 03:26:34;;;;;;;;;;;4.00;99.90;;;;;;12935803;22;19943;-87
2021/03/01 03:31:37;;;;;;;;;;;4.00;99.90;;;;;;12985857;22;22112;-87
2021/03/01 03:36:40;;;;;;;;;;;6.90;99.90;;;;;;12936305;22;19923;-86
2021/03/01 03:41:42;;;;;;;;;;;4.00;99.90;;;;;;12986311;22;19923;-86
2021/03/01 03:46:44;;;;;;;;;;;3.90;99.90;;;;;;12958905;22;19925;-86
2021/03/01 03:51:46;;;;;;;;;;;3.80;99.90;;;;;;12960336;22;19919;-87
2021/03/01 03:56:52;;;;;;;;;;;3.80;99.90;;;;;;12960481;22;19919;-86
2021/03/01 04:01:56;;;;;;;;;;;3.80;99.90;;;;;;12987853;22;20002;-87
2021/03/01 04:06:58;;;;;;;;;;;3.70;99.90;;;;;;12960369;22;19942;-87
2021/03/01 04:11:59;;;;;;;;;;;5.60;99.90;;;;;;12934589;22;20248;-87
2021/03/01 04:17:04;;;;;;;;;;;5.90;99.90;;;;;;12959051;22;20248;-87
2021/03/01 04:22:06;;;;;;;;;;;3.80;99.90;;;;;;12960237;22;19919;-87
2021/03/01 04:27:09;;;;;;;;;;;3.80;99.90;;;;;;12934508;22;19954;-87
2021/03/01 04:32:15;;;;;;;;;;;5.80;99.90;;;;;;12986158;22;20022;-87
2021/03/01 04:37:16;;;;;;;;;;;3.70;99.90;;;;;;12987574;22;20109;-86
2021/03/01 04:42:20;;;;;;;;;;;6.90;99.90;;;;;;12964083;22;19950;-86
2021/03/01 04:47:33;;;;;;;;;;;3.70;99.90;;;;;;12966363;22;19994;-87
2021/03/01 04:52:36;;;;;;;;;;;4.90;99.90;;;;;;12963205;22;19969;-86
2021/03/01 04:57:38;;;;;;;;;;;6.10;99.90;;;;;;12963833;22;19919;-86
2021/03/01 05:14:30;;;;;;;;;;;3.60;99.90;;;;;;13008338;22;19943;-87
2021/03/01 05:19:33;;;;;;;;;;;3.60;99.90;;;;;;12964011;22;19924;-87
2021/03/01 05:24:34;;;;;;;;;;;3.60;99.90;;;;;;12965160;22;19946;-87
2021/03/01 05:29:36;;;;;;;;;;;3.70;99.90;;;;;;12954342;22;19953;-87
2021/03/01 05:34:37;;;;;;;;;;;3.60;99.90;;;;;;12943929;22;19961;-87
2021/03/01 05:39:38;;;;;;;;;;;3.60;99.90;;;;;;12938560;22;20339;-87
2021/03/01 05:44:40;;;;;;;;;;;3.70;99.90;;;;;;12937569;22;19919;-87
2021/03/01 05:49:42;;;;;;;;;;;3.70;99.90;;;;;;12936825;22;19926;-87
2021/03/01 05:54:44;;;;;;;;;;;3.70;99.90;;;;;;12962628;22;19919;-87
2021/03/01 05:59:46;;;;;;;;;;;3.60;99.90;;;;;;12962193;22;19998;-86
2021/03/01 06:04:47;;;;;;;;;;;3.70;99.90;;;;;;12937105;22;19987;-86
2021/03/01 06:09:48;;;;;;;;;;;3.50;99.90;;;;;;12935629;22;19919;-86
2021/03/01 06:14:50;;;;;;;;;;;4.10;99.90;;;;;;12951142;22;19957;-86
2021/03/01 06:19:55;;;;;;;;;;;2.90;99.90;;;;;;12858867;22;20003;-87
2021/03/01 06:25:10;;;;;;;;;;;3.60;99.90;;;;;;12987449;22;19946;-87
2021/03/01 06:30:15;;;;;;;;;;;3.40;99.90;;;;;;12859668;22;19919;-87
2021/03/01 06:35:30;;;;;;;;;;;3.30;99.90;;;;;;12857566;22;19923;-87
2021/03/01 06:40:33;;;;;;;;;;;3.40;99.90;;;;;;12860133;22;19927;-87
2021/03/01 06:45:37;;;;;;;;;;;3.40;99.90;;;;;;12857729;22;20284;-87
2021/03/01 06:50:46;;;;;;;;;;;3.40;99.90;;;;;;12833575;22;19919;-87
2021/03/01 06:55:56;;;;;;;;;;;3.10;99.90;;;;;;12860131;22;20387;-87
2021/03/01 07:00:58;;;;;;;;;;;3.30;99.90;;;;;;12986445;22;19994;-86
2021/03/01 07:06:01;;;;;;;;;;;4.40;99.90;;;;;;12857055;22;19998;-87
2021/03/01 07:11:20;;;;;;;;;;;4.80;99.90;;;;;;12832452;22;20355;-87
2021/03/01 07:16:26;;;;;;;;;;;3.40;99.90;;;;;;12860795;22;20340;-87
2021/03/01 07:21:28;;;;;;;;;;;3.50;99.90;;;;;;12857825;22;19919;-87
2021/03/01 07:26:29;;;;;;;;;;;3.50;99.90;;;;;;12833524;22;19982;-87
2021/03/01 07:31:33;;;;;;;;;;;5.80;99.90;;;;;;12834356;22;19926;-87
2021/03/01 07:36:35;;;;;;;;;;;3.60;99.90;;;;;;12858296;22;19926;-87
2021/03/01 07:41:40;;;;;;;;;;;3.20;99.90;;;;;;12860505;22;19969;-87
2021/03/01 07:46:45;;;;;;;;;;;4.10;99.90;;;;;;12856271;22;19919;-88
2021/03/01 07:51:49;;;;;;;;;;;5.40;99.90;;;;;;12857388;22;19926;-87
2021/03/01 07:56:51;;;;;;;;;;;3.60;99.90;;;;;;12986245;22;19973;-88
2021/03/01 08:02:08;;;;;;;;;;;3.70;99.90;;;;;;12833576;22;19926;-87
2021/03/01 08:07:10;;;;;;;;;;;3.70;99.90;;;;;;12857672;22;19923;-88
2021/03/01 08:12:32;;;;;;;;;;;3.80;99.90;;;;;;12856895;22;19919;-87
2021/03/01 08:17:33;;;;;;;;;;;3.80;99.90;;;;;;12860767;22;19926;-87
2021/03/01 08:22:55;;;;;;;;;;;3.90;99.90;;;;;;12861544;22;20003;-87
2021/03/01 08:28:04;;;;;;;;;;;6.00;99.90;;;;;;12859409;22;19919;-87
2021/03/01 08:33:09;;;;;;;;;;;3.90;99.90;;;;;;12859363;22;20384;-87
2021/03/01 08:38:11;;;;;;;;;;;4.00;99.90;;;;;;12861320;22;19923;-87
2021/03/01 08:43:29;;;;;;;;;;;3.90;99.90;;;;;;12860363;22;19973;-87
2021/03/01 08:48:31;;;;;;;;;;;6.10;99.90;;;;;;12861588;22;19946;-88
2021/03/01 08:53:32;;;;;;;;;;;3.80;99.90;;;;;;12991905;22;20014;-87
2021/03/01 08:58:35;;;;;;;;;;;4.20;99.90;;;;;;12990497;22;19923;-87
2021/03/01 09:03:40;;;;;;;;;;;3.90;99.90;;;;;;12981691;22;19946;-87
2021/03/01 09:08:44;;;;;;;;;;;3.90;99.90;;;;;;12850335;22;20332;-87
2021/03/01 09:13:46;;;;;;;;;;;4.40;99.90;;;;;;12852703;22;19990;-87
2021/03/01 09:18:47;;;;;;;;;;;3.90;99.90;;;;;;12855023;22;19965;-87
2021/03/01 09:23:50;;;;;;;;;;;3.60;99.90;;;;;;12830678;22;19990;-87
2021/03/01 09:28:55;;;;;;;;;;;3.70;99.90;;;;;;12856320;22;19930;-87
2021/03/01 09:34:04;;;;;;;;;;;4.50;99.90;;;;;;12860285;22;20335;-87
2021/03/01 09:39:07;;;;;;;;;;;3.90;99.90;;;;;;12853931;22;19962;-87
2021/03/01 09:44:26;;;;;;;;;;;4.10;99.90;;;;;;12867238;22;19955;-87
2021/03/01 09:49:28;;;;;;;;;;;4.10;99.90;;;;;;12984496;22;19923;-87
2021/03/01 09:54:31;;;;;;;;;;;5.90;99.90;;;;;;12852885;22;20005;-87
2021/03/01 09:59:34;;;;;;;;;;;6.00;99.90;;;;;;12854104;22;20002;-87
2021/03/01 10:04:36;;;;;;;;;;;6.70;99.90;;;;;;12854123;22;19923;-87
2021/03/01 10:10:10;;;;;;;;;;;4.10;99.90;;;;;;12876425;22;19942;-87
2021/03/01 10:15:13;;;;;;;;;;;4.10;99.90;;;;;;12850640;22;20361;-87
2021/03/01 10:20:17;;;;;;;;;;;4.20;99.90;;;;;;12854224;22;19994;-87
2021/03/01 10:25:33;;;;;;;;;;;4.50;99.90;;;;;;12830775;22;19981;-87
2021/03/01 10:30:38;;;;;;;;;;;4.20;99.90;;;;;;12857098;22;19923;-87
2021/03/01 10:35:41;;;;;;;;;;;6.60;99.90;;;;;;12855816;22;19946;-87
2021/03/01 10:40:42;;;;;;;;;;;4.10;99.90;;;;;;12829836;22;20003;-87
2021/03/01 10:45:49;;;;;;;;;;;4.10;99.90;;;;;;12852599;22;19926;-86
2021/03/01 10:50:51;;;;;;;;;;;4.30;99.90;;;;;;12830159;22;19923;-86
2021/03/01 10:55:52;;;;;;;;;;;4.50;99.90;;;;;;12851350;22;19927;-86
2021/03/01 11:00:54;;;;;;;;;;;6.00;99.90;;;;;;12827161;22;19923;-86
2021/03/01 11:05:55;;;;;;;;;;;8.20;99.90;;;;;;12695159;23;19925;-87
2021/03/01 11:10:57;;;;;;;;;;;4.30;99.90;;;;;;12695008;23;19927;-88
2021/03/01 11:15:58;;;;;;;;;;;6.10;99.90;;;;;;12670453;23;19920;-88
2021/03/01 11:21:00;;;;;;;;;;;4.70;99.90;;;;;;12669187;23;19963;-88
2021/03/01 11:26:01;;;;;;;;;;;4.80;99.90;;;;;;12669123;23;19924;-88
2021/03/01 11:31:03;;;;;;;;;;;5.30;99.90;;;;;;12664112;23;19928;-88
2021/03/01 11:36:06;;;;;;;;;;;4.80;99.90;;;;;;12687640;23;19936;-87
2021/03/01 11:41:15;;;;;;;;;;;4.90;99.90;;;;;;12696060;23;19929;-88
2021/03/01 11:46:21;;;;;;;;;;;4.90;99.90;;;;;;12693365;23;19932;-88
2021/03/01 11:51:23;;;;;;;;;;;6.10;99.90;;;;;;12670257;23;19931;-88
2021/03/01 11:56:24;;;;;;;;;;;4.70;99.90;;;;;;12670195;23;20355;-88
2021/03/01 12:01:25;;;;;;;;;;;4.90;99.90;;;;;;12694994;23;19930;-88
2021/03/01 12:06:29;;;;;;;;;;;7.20;99.90;;;;;;12693409;23;20289;-88
2021/03/01 12:11:31;;;;;;;;;;;8.20;99.90;;;;;;12677917;23;19920;-88
2021/03/01 12:16:32;;;;;;;;;;;6.80;99.90;;;;;;12699783;23;20365;-86
2021/03/01 12:21:34;;;;;;;;;;;5.20;99.90;;;;;;12670313;23;19924;-87
2021/03/01 12:26:35;;;;;;;;;;;5.80;99.90;;;;;;12696111;23;19920;-86
2021/03/01 12:31:37;;;;;;;;;;;5.80;99.90;;;;;;12671818;23;19929;-86
2021/03/01 12:36:39;;;;;;;;;;;5.00;99.90;;;;;;12695004;23;19924;-87
2021/03/01 12:41:41;;;;;;;;;;;5.20;99.90;;;;;;12670795;23;19991;-87
2021/03/01 12:46:42;;;;;;;;;;;5.20;99.90;;;;;;12694245;23;19941;-87
2021/03/01 12:51:46;;;;;;;;;;;5.20;99.90;;;;;;12694784;23;20356;-87
2021/03/01 12:56:48;;;;;;;;;;;5.30;99.90;;;;;;12695754;23;19927;-87
2021/03/01 13:01:49;;;;;;;;;;;5.50;99.90;;;;;;12672144;23;19924;-86
2021/03/01 13:06:51;;;;;;;;;;;8.40;99.90;;;;;;12672610;23;20003;-86
2021/03/01 13:11:52;;;;;;;;;;;5.70;99.90;;;;;;12673122;23;20007;-87
2021/03/01 13:16:57;;;;;;;;;;;5.90;99.90;;;;;;12673342;23;19931;-87
2021/03/01 13:21:59;;;;;;;;;;;5.50;99.90;;;;;;12698130;23;19928;-87
2021/03/01 13:27:00;;;;;;;;;;;6.50;99.90;;;;;;12674448;23;19925;-87
2021/03/01 13:32:01;;;;;;;;;;;6.30;99.90;;;;;;12673724;23;19928;-87
2021/03/01 13:37:08;;;;;;;;;;;5.90;99.90;;;;;;12675132;23;19925;-86
2021/03/01 13:42:11;;;;;;;;;;;5.70;99.90;;;;;;12674613;23;20000;-87
2021/03/01 13:47:17;;;;;;;;;;;6.30;99.90;;;;;;12697292;23;19929;-86
2021/03/01 13:52:18;;;;;;;;;;;6.80;99.90;;;;;;12698116;23;19927;-86
2021/03/01 13:57:20;;;;;;;;;;;5.70;99.90;;;;;;12721705;23;20424;-86
2021/03/01 14:02:21;;;;;;;;;;;6.80;99.90;;;;;;12720697;23;19931;-87
2021/03/01 14:07:29;;;;;;;;;;;6.50;99.90;;;;;;12675618;23;19932;-86
2021/03/01 14:12:30;;;;;;;;;;;6.30;99.90;;;;;;12671029;23;19952;-86
2021/03/01 14:17:32;;;;;;;;;;;6.70;99.90;;;;;;12720814;23;19925;-86
2021/03/01 14:22:37;;;;;;;;;;;7.00;99.90;;;;;;12696439;23;19931;-87
2021/03/01 14:27:39;;;;;;;;;;;6.90;99.90;;;;;;12671804;23;20050;-87
2021/03/01 14:32:41;;;;;;;;;;;6.90;99.90;;;;;;12671895;23;19931;-86
2021/03/01 14:37:52;;;;;;;;;;;6.50;99.90;;;;;;12697453;23;19928;-86
2021/03/01 14:42:53;;;;;;;;;;;6.70;99.90;;;;;;12671973;23;19970;-86
2021/03/01 14:47:54;;;;;;;;;;;7.00;99.90;;;;;;12672290;23;19931;-86
2021/03/01 14:52:58;;;;;;;;;;;6.30;99.90;;;;;;12671014;23;19925;-86
2021/03/01 14:58:00;;;;;;;;;;;7.00;99.90;;;;;;12695591;23;20284;-86
2021/03/01 15:03:02;;;;;;;;;;;8.50;99.90;;;;;;12662291;22;20318;-86
2021/03/01 15:08:20;;;;;;;;;;;6.90;99.90;;;;;;12678969;23;19978;-86
2021/03/01 15:13:22;;;;;;;;;;;7.10;99.90;;;;;;12695833;23;19928;-87
2021/03/01 15:18:24;;;;;;;;;;;9.50;99.90;;;;;;12671042;23;19944;-87
2021/03/01 15:23:27;;;;;;;;;;;7.70;99.90;;;;;;12695435;23;20257;-87
2021/03/01 15:28:29;;;;;;;;;;;8.50;99.90;;;;;;12721364;23;19930;-87
2021/03/01 15:33:31;;;;;;;;;;;6.90;99.90;;;;;;12722745;23;19924;-87
2021/03/01 15:38:42;;;;;;;;;;;6.80;99.90;;;;;;12698176;23;20322;-86
2021/03/01 15:43:45;;;;;;;;;;;6.70;99.90;;;;;;12697236;23;19966;-87
2021/03/01 15:48:48;;;;;;;;;;;9.50;99.90;;;;;;12694357;23;19928;-87
2021/03/01 15:53:50;;;;;;;;;;;6.90;99.90;;;;;;12695003;23;19995;-86
2021/03/01 15:58:51;;;;;;;;;;;6.60;99.90;;;;;;12693509;23;19947;-86
2021/03/01 16:04:02;;;;;;;;;;;6.90;99.90;;;;;;12668420;22;19924;-85
2021/03/01 16:09:08;;;;;;;;;;;6.80;99.90;;;;;;12694628;23;20063;-85
2021/03/01 16:14:12;;;;;;;;;;;6.70;99.90;;;;;;12669727;23;20003;-86
2021/03/01 16:19:13;;;;;;;;;;;7.80;99.90;;;;;;12690625;23;19999;-85
2021/03/01 16:24:15;;;;;;;;;;;6.60;99.90;;;;;;12687707;23;20454;-85
2021/03/01 16:29:16;;;;;;;;;;;6.60;99.90;;;;;;12694495;23;19931;-86
2021/03/01 16:34:17;;;;;;;;;;;7.00;99.90;;;;;;12694419;23;20315;-85
2021/03/01 16:39:27;;;;;;;;;;;6.40;99.90;;;;;;12674928;23;20428;-85
2021/03/01 16:44:28;;;;;;;;;;;6.50;99.90;;;;;;12695737;23;19924;-85
2021/03/01 16:49:35;;;;;;;;;;;8.30;99.90;;;;;;12670918;23;19931;-85
2021/03/01 16:54:38;;;;;;;;;;;6.30;99.90;;;;;;12720709;23;20350;-85
2021/03/01 16:59:42;;;;;;;;;;;5.80;99.90;;;;;;12722325;23;20019;-85
2021/03/01 17:04:44;;;;;;;;;;;7.00;99.90;;;;;;12841725;22;19927;-86
2021/03/01 17:09:51;;;;;;;;;;;5.30;99.90;;;;;;12955334;22;19934;-86
2021/03/01 17:14:54;;;;;;;;;;;5.00;99.90;;;;;;12953466;22;19930;-87
2021/03/01 17:19:58;;;;;;;;;;;4.80;99.90;;;;;;12952300;22;20005;-86
2021/03/01 17:25:04;;;;;;;;;;;4.70;99.90;;;;;;12980359;22;19919;-86
2021/03/01 17:30:07;;;;;;;;;;;4.90;99.90;;;;;;12953401;22;19929;-86
2021/03/01 17:35:10;;;;;;;;;;;4.90;99.90;;;;;;12953179;22;19986;-87
2021/03/01 17:40:16;;;;;;;;;;;4.50;99.90;;;;;;12954058;22;19993;-86
2021/03/01 17:45:20;;;;;;;;;;;5.90;99.90;;;;;;12953041;22;20264;-86
2021/03/01 17:50:23;;;;;;;;;;;4.70;99.90;;;;;;12952766;22;19923;-86
2021/03/01 17:55:41;;;;;;;;;;;4.20;99.90;;;;;;12952726;22;19946;-87
2021/03/01 18:00:43;;;;;;;;;;;4.00;99.90;;;;;;12952422;22;19965;-86
2021/03/01 18:05:47;;;;;;;;;;;4.00;99.90;;;;;;12913824;23;19938;-87
2021/03/01 18:10:52;;;;;;;;;;;3.90;99.90;;;;;;12914911;23;19929;-87
2021/03/01 18:15:55;;;;;;;;;;;5.90;99.90;;;;;;12913600;23;20340;-87
2021/03/01 18:20:58;;;;;;;;;;;4.40;99.90;;;;;;12915947;23;20248;-86
2021/03/01 18:26:06;;;;;;;;;;;5.30;99.90;;;;;;12914734;23;19924;-87
2021/03/01 18:31:07;;;;;;;;;;;3.70;99.90;;;;;;12889336;23;19998;-86
2021/03/01 18:36:09;;;;;;;;;;;3.50;99.90;;;;;;12915450;23;19955;-86
2021/03/01 18:41:14;;;;;;;;;;;3.40;99.90;;;;;;12913510;23;20260;-86
2021/03/01 18:46:16;;;;;;;;;;;3.60;99.90;;;;;;12890496;23;19930;-86
2021/03/01 18:51:20;;;;;;;;;;;6.90;99.90;;;;;;12889196;23;20383;-86
2021/03/01 18:56:22;;;;;;;;;;;3.80;99.90;;;;;;12912098;23;19925;-86
2021/03/01 19:01:23;;;;;;;;;;;3.70;99.90;;;;;;12913999;23;19930;-87
2021/03/01 19:06:25;;;;;;;;;;;3.50;99.90;;;;;;12976174;22;20252;-86
2021/03/01 19:11:26;;;;;;;;;;;3.40;99.90;;;;;;12953344;22;19929;-86
2021/03/01 19:16:30;;;;;;;;;;;3.20;99.90;;;;;;12927254;22;20268;-86
2021/03/01 19:21:32;;;;;;;;;;;6.40;99.90;;;;;;12951051;22;20288;-86
2021/03/01 19:26:36;;;;;;;;;;;3.20;99.90;;;;;;12927651;22;19923;-87
2021/03/01 19:31:38;;;;;;;;;;;2.90;99.90;;;;;;12925710;22;20371;-86
2021/03/01 19:36:39;;;;;;;;;;;3.20;99.90;;;;;;12978370;22;19927;-86
2021/03/01 19:41:45;;;;;;;;;;;5.50;99.90;;;;;;12950688;22;19973;-86
2021/03/01 19:46:46;;;;;;;;;;;3.00;99.90;;;;;;12925208;22;19987;-86
2021/03/01 19:51:51;;;;;;;;;;;2.90;99.90;;;;;;12977761;22;19972;-86
2021/03/01 19:56:55;;;;;;;;;;;3.20;99.90;;;;;;12925953;22;19930;-86
2021/03/01 20:01:56;;;;;;;;;;;2.80;99.90;;;;;;12924779;22;19998;-86
2021/03/01 20:06:58;;;;;;;;;;;5.10;99.90;;;;;;12950153;22;19923;-86
2021/03/01 20:12:08;;;;;;;;;;;3.10;99.90;;;;;;12928839;22;19973;-86
2021/03/01 20:17:10;;;;;;;;;;;3.20;99.90;;;;;;12950888;22;19919;-86
2021/03/01 20:22:11;;;;;;;;;;;3.10;99.90;;;;;;12976850;22;20244;-86
2021/03/01 20:27:13;;;;;;;;;;;4.50;99.90;;;;;;12950654;22;19927;-86
2021/03/01 20:32:14;;;;;;;;;;;5.30;99.90;;;;;;12950189;22;19926;-86
2021/03/01 20:37:16;;;;;;;;;;;3.40;99.90;;;;;;12925753;22;20014;-86
2021/03/01 20:42:26;;;;;;;;;;;3.50;99.90;;;;;;12930549;22;19930;-86
2021/03/01 20:47:27;;;;;;;;;;;4.10;99.90;;;;;;12951887;22;19926;-86
2021/03/01 20:52:30;;;;;;;;;;;4.50;99.90;;;;;;12926388;22;19973;-86
2021/03/01 20:57:31;;;;;;;;;;;5.20;99.90;;;;;;12951366;22;19994;-87
2021/03/01 21:02:33;;;;;;;;;;;2.60;99.90;;;;;;12949925;22;19923;-86
2021/03/01 21:07:35;;;;;;;;;;;2.40;99.90;;;;;;12950418;22;19930;-86
2021/03/01 21:12:48;;;;;;;;;;;4.00;99.90;;;;;;12953621;22;20010;-86
2021/03/01 21:17:50;;;;;;;;;;;4.20;99.90;;;;;;12950573;22;19993;-86
2021/03/01 21:23:03;;;;;;;;;;;2.20;99.90;;;;;;12954865;22;19923;-86
2021/03/01 21:28:06;;;;;;;;;;;2.30;99.90;;;;;;12980785;22;20220;-86
2021/03/01 21:33:09;;;;;;;;;;;2.30;99.90;;;;;;12930214;22;19930;-86
2021/03/01 21:38:14;;;;;;;;;;;3.50;99.90;;;;;;12929528;22;19923;-86
2021/03/01 21:43:16;;;;;;;;;;;2.20;99.90;;;;;;12954286;22;20332;-87
2021/03/01 21:48:18;;;;;;;;;;;1.90;99.90;;;;;;12960782;22;19990;-86
2021/03/01 21:53:23;;;;;;;;;;;2.00;99.90;;;;;;12960861;22;19923;-86
2021/03/01 21:58:26;;;;;;;;;;;2.00;99.90;;;;;;12986950;22;19922;-86
2021/03/01 22:03:28;;;;;;;;;;;2.00;99.90;;;;;;12988633;22;19919;-86
2021/03/01 22:08:32;;;;;;;;;;;2.30;99.90;;;;;;12936010;22;19986;-86
2021/03/01 22:13:40;;;;;;;;;;;2.20;99.90;;;;;;12937806;22;20229;-86
2021/03/01 22:18:41;;;;;;;;;;;4.70;99.90;;;;;;12961288;22;19926;-86
2021/03/01 22:23:44;;;;;;;;;;;2.50;99.90;;;;;;12960493;22;19986;-86
2021/03/01 22:28:46;;;;;;;;;;;1.90;99.90;;;;;;12961087;22;19919;-86
2021/03/01 22:34:07;;;;;;;;;;;3.90;99.90;;;;;;12986276;22;19919;-86
2021/03/01 22:39:12;;;;;;;;;;;2.60;99.90;;;;;;12939027;22;19923;-86
2021/03/01 22:44:18;;;;;;;;;;;3.10;99.90;;;;;;12934137;22;19919;-86
2021/03/01 22:49:19;;;;;;;;;;;1.90;99.90;;;;;;12960094;22;19986;-86
2021/03/01 22:54:28;;;;;;;;;;;4.10;99.90;;;;;;12935026;22;19919;-86
2021/03/01 22:59:29;;;;;;;;;;;2.20;99.90;;;;;;12959150;22;19919;-86
2021/03/01 23:04:31;;;;;;;;;;;3.40;99.90;;;;;;12958728;22;20259;-89
2021/03/01 23:09:32;;;;;;;;;;;2.90;99.90;;;;;;12934927;22;20244;-89
2021/03/01 23:14:35;;;;;;;;;;;2.30;99.90;;;;;;12959688;22;19923;-90
2021/03/01 23:19:37;;;;;;;;;;;2.20;99.90;;;;;;12959685;22;19945;-89
2021/03/01 23:24:43;;;;;;;;;;;3.20;99.90;;;;;;12935140;22;19927;-89
2021/03/01 23:29:44;;;;;;;;;;;2.10;99.90;;;;;;12960769;22;19919;-89
2021/03/01 23:34:46;;;;;;;;;;;2.10;99.90;;;;;;12934829;22;19930;-88
2021/03/01 23:39:48;;;;;;;;;;;1.90;99.90;;;;;;12964886;22;19919;-89
2021/03/01 23:44:49;;;;;;;;;;;1.90;99.90;;;;;;12988383;22;19930;-89
2021/03/01 23:49:52;;;;;;;;;;;1.80;99.90;;;;;;12960654;22;19977;-89
2021/03/01 23:54:53;;;;;;;;;;;1.70;99.90;;;;;;12960519;22;19920;-89
2021/03/01 23:59:57;;;;;;;;;;;1.50;99.90;;;;;;12935572;22;19920;-89
